createdAt,value
2022-10-11T04:18:00.733Z,81.88
2022-10-11T04:45:34.831Z,81.36
2022-10-11T04:48:01.777Z,80.45
2022-10-11T04:50:28.480Z,79.01
2022-10-11T04:52:55.085Z,79.78
2022-10-11T04:55:21.614Z,80.80
2022-10-11T04:57:48.321Z,81.54
2022-10-11T05:00:15.319Z,82.14
2022-10-11T05:02:41.802Z,80.46
2022-10-11T05:05:08.892Z,80.29
2022-10-11T05:07:35.871Z,80.62
2022-10-11T05:10:02.560Z,81.92
2022-10-11T05:12:29.894Z,81.70
2022-10-11T05:14:57.814Z,81.61
2022-10-11T05:17:24.300Z,82.37
2022-10-11T05:19:50.881Z,82.33
2022-10-11T05:22:17.349Z,82.47
2022-10-11T05:24:43.906Z,82.01
2022-10-11T05:27:10.482Z,80.27
2022-10-11T05:29:37.181Z,81.12
2022-10-11T05:32:03.831Z,81.90
2022-10-11T05:34:30.299Z,82.66
2022-10-11T05:36:57.566Z,81.14
2022-10-11T05:39:24.421Z,81.10
2022-10-11T05:41:52.275Z,81.84
2022-10-11T05:44:18.776Z,82.30
2022-10-11T05:46:45.769Z,83.54
2022-10-11T05:49:12.332Z,83.22
2022-10-11T05:51:38.928Z,82.69
2022-10-11T05:54:05.606Z,83.18
2022-10-11T05:56:32.178Z,83.26
2022-10-11T05:59:02.200Z,83.84
2022-10-11T06:01:29.205Z,83.19
2022-10-11T06:03:56.034Z,83.48
2022-10-11T06:06:23.376Z,81.92
2022-10-11T06:08:50.515Z,82.06
2022-10-11T06:11:23.674Z,82.77
2022-10-11T06:13:50.389Z,83.03
2022-10-11T06:16:16.862Z,83.02
2022-10-11T06:18:43.489Z,83.34
2022-10-11T06:21:10.224Z,83.07
2022-10-11T06:23:36.781Z,82.47
2022-10-11T06:26:09.599Z,82.80
2022-10-11T06:28:37.191Z,82.52
2022-10-11T06:31:05.816Z,82.88
2022-10-11T06:33:33.646Z,82.79
2022-10-11T06:36:09.882Z,82.93
2022-10-11T06:38:39.807Z,82.92
2022-10-11T06:41:16.165Z,83.16
2022-10-11T06:43:42.775Z,82.97
2022-10-11T06:46:09.357Z,82.62
2022-10-11T06:48:40.443Z,81.41
2022-10-11T06:51:06.935Z,81.78
2022-10-11T06:53:33.568Z,82.48
2022-10-11T06:56:09.203Z,83.28
2022-10-11T06:58:36.823Z,83.69
2022-10-11T07:01:06.545Z,83.63
2022-10-11T07:03:33.422Z,83.40
2022-10-11T07:06:05.465Z,83.15
2022-10-11T07:08:32.917Z,82.93
2022-10-11T07:11:04.313Z,83.08
2022-10-11T07:13:31.227Z,83.47
2022-10-11T07:16:01.231Z,83.24
2022-10-11T07:18:28.718Z,83.07
2022-10-11T07:20:55.295Z,82.95
2022-10-11T07:23:22.893Z,82.66
2022-10-11T07:25:50.005Z,82.80
2022-10-11T07:28:17.118Z,82.28
2022-10-11T07:30:44.157Z,82.18
2022-10-11T07:33:10.722Z,82.40
2022-10-11T07:35:37.652Z,81.93
2022-10-11T07:38:06.297Z,81.76
2022-10-11T07:40:40.397Z,81.51
2022-10-11T07:43:06.893Z,81.60
2022-10-11T07:45:33.440Z,80.88
2022-10-11T07:48:00.060Z,80.85
2022-10-11T07:50:26.712Z,81.17
2022-10-11T07:52:53.318Z,80.83
2022-10-11T07:55:19.843Z,81.10
2022-10-11T07:57:46.384Z,80.99
2022-10-11T08:00:13.728Z,80.97
2022-10-11T08:02:40.292Z,80.87
2022-10-11T08:05:07.137Z,80.87
2022-10-11T08:07:33.714Z,80.43
2022-10-11T08:10:00.239Z,80.66
2022-10-11T08:12:26.751Z,80.43
2022-10-11T08:14:55.182Z,80.18
2022-10-11T08:17:21.675Z,79.93
2022-10-11T08:19:48.564Z,79.57
2022-10-11T08:22:15.055Z,79.27
2022-10-11T08:24:41.575Z,79.29
2022-10-11T08:27:08.271Z,78.97
2022-10-11T08:29:34.756Z,78.93
2022-10-11T08:32:01.238Z,78.79
2022-10-11T08:34:28.068Z,78.54
2022-10-11T08:36:54.609Z,78.26
2022-10-11T08:39:21.093Z,77.55
2022-10-11T08:41:54.138Z,77.04
2022-10-11T08:45:09.026Z,76.59
2022-10-11T08:47:37.699Z,77.01
2022-10-11T08:50:07.709Z,76.19
2022-10-11T08:52:45.108Z,75.69
2022-10-11T08:55:49.199Z,74.90
2022-10-11T08:58:20.353Z,74.81
2022-10-11T09:00:50.524Z,74.71
2022-10-11T09:03:38.127Z,74.84
2022-10-11T09:06:34.876Z,74.61
2022-10-11T09:09:17.910Z,73.89
2022-10-11T09:12:03.717Z,73.89
2022-10-11T09:15:02.627Z,73.75
2022-10-11T09:17:45.159Z,72.68
2022-10-11T09:20:49.177Z,72.00
2022-10-11T09:23:33.946Z,72.33
2022-10-11T09:26:50.241Z,71.80
2022-10-11T09:29:32.130Z,71.74
2022-10-11T09:31:59.535Z,70.93
2022-10-11T09:34:32.350Z,71.24
2022-10-11T09:37:32.881Z,70.93
2022-10-11T09:40:17.559Z,70.33
2022-10-11T09:42:44.054Z,70.71
2022-10-11T09:45:28.868Z,69.87
2022-10-11T09:47:57.716Z,69.56
2022-10-11T09:50:30.692Z,68.95
2022-10-11T09:53:00.140Z,68.02
2022-10-11T09:55:34.809Z,66.85
2022-10-11T09:58:02.302Z,66.85
2022-10-11T10:00:33.660Z,66.65
2022-10-11T10:03:02.942Z,65.98
2022-10-11T10:05:37.515Z,66.46
2022-10-11T10:08:23.467Z,66.58
2022-10-11T10:11:05.747Z,66.77
2022-10-11T10:14:04.534Z,67.01
2022-10-11T10:16:33.728Z,67.00
2022-10-11T10:19:07.183Z,67.04
2022-10-11T10:21:44.077Z,67.41
2022-10-11T10:24:40.182Z,67.33
2022-10-11T10:27:22.766Z,67.52
2022-10-11T10:30:07.842Z,65.49
2022-10-11T10:32:48.661Z,65.28
2022-10-11T10:35:27.287Z,66.26
2022-10-11T10:38:06.614Z,67.18
2022-10-11T10:40:41.300Z,66.51
2022-10-11T10:43:15.680Z,66.46
2022-10-11T10:46:16.089Z,66.02
2022-10-11T10:49:23.250Z,66.29
2022-10-11T10:51:54.773Z,65.89
2022-10-11T10:57:02.161Z,65.17
2022-10-11T10:59:40.539Z,65.30
2022-10-11T11:02:40.375Z,64.94
2022-10-11T11:05:36.459Z,64.34
2022-10-11T11:08:32.217Z,64.47
2022-10-11T11:11:36.428Z,64.06
2022-10-11T11:14:32.163Z,63.88
2022-10-11T11:17:25.280Z,64.01
2022-10-11T11:20:06.956Z,64.15
2022-10-11T11:22:46.118Z,64.21
2022-10-11T11:25:27.795Z,64.04
2022-10-11T11:28:13.448Z,64.50
2022-10-11T11:30:55.714Z,64.38
2022-10-11T11:33:49.410Z,64.44
2022-10-11T11:36:26.236Z,64.45
2022-10-11T11:38:59.928Z,64.15
2022-10-11T11:41:31.428Z,63.65
2022-10-11T11:44:15.854Z,63.63
2022-10-11T11:46:53.533Z,63.39
2022-10-11T11:49:31.155Z,63.91
2022-10-11T11:51:59.217Z,63.98
2022-10-11T11:54:35.009Z,63.79
2022-10-11T11:57:20.204Z,62.54
2022-10-11T11:59:59.768Z,62.93
2022-10-11T12:02:45.063Z,62.74
2022-10-11T12:05:15.462Z,62.18
2022-10-11T12:07:53.097Z,61.87
2022-10-11T12:10:37.191Z,61.22
2022-10-11T12:13:13.102Z,59.68
2022-10-11T12:15:40.019Z,59.50
2022-10-11T12:18:16.503Z,58.96
2022-10-11T12:20:46.699Z,59.03
2022-10-11T12:23:28.458Z,58.44
2022-10-11T12:26:16.917Z,58.48
2022-10-11T12:28:43.640Z,57.79
2022-10-11T12:31:18.319Z,56.34
2022-10-11T12:33:52.302Z,52.68
2022-10-11T12:36:44.863Z,53.89
2022-10-11T12:39:20.581Z,54.22
2022-10-11T12:42:06.021Z,54.23
2022-10-11T12:44:32.696Z,53.92
2022-10-11T12:47:16.245Z,54.69
2022-10-11T12:50:06.841Z,55.76
2022-10-11T12:52:43.696Z,54.91
2022-10-11T12:55:36.583Z,54.43
2022-10-11T12:58:24.823Z,54.10
2022-10-11T13:00:51.862Z,52.14
2022-10-11T13:03:39.432Z,51.41
2022-10-11T13:06:35.399Z,51.20
2022-10-11T13:09:10.821Z,50.88
2022-10-11T13:11:44.082Z,49.85
2022-10-11T13:14:23.363Z,48.51
2022-10-11T13:16:56.068Z,48.63
2022-10-11T13:19:23.482Z,48.82
2022-10-11T13:21:54.635Z,49.73
2022-10-11T13:24:23.240Z,49.91
2022-10-11T13:26:52.174Z,48.11
2022-10-11T13:29:24.397Z,47.82
2022-10-11T13:31:51.044Z,47.68
2022-10-11T13:34:23.058Z,47.81
2022-10-11T13:36:55.877Z,48.25
2022-10-11T13:39:31.822Z,47.67
2022-10-11T13:42:00.404Z,47.14
2022-10-11T13:44:27.393Z,48.41
2022-10-11T13:46:54.490Z,48.86
2022-10-11T13:49:37.588Z,49.07
2022-10-11T13:52:26.208Z,48.67
2022-10-11T13:55:03.384Z,49.53
2022-10-11T13:57:35.945Z,49.71
2022-10-11T14:00:17.516Z,49.05
2022-10-11T14:02:59.860Z,50.03
2022-10-11T14:05:43.200Z,48.83
2022-10-11T14:08:21.939Z,49.71
2022-10-11T14:10:55.663Z,50.60
2022-10-11T14:13:35.476Z,50.21
2022-10-11T14:16:09.704Z,49.65
2022-10-11T14:18:44.442Z,49.07
2022-10-11T14:21:20.350Z,49.16
2022-10-11T14:23:50.947Z,48.67
2022-10-11T14:26:19.177Z,48.53
2022-10-11T14:28:48.984Z,48.19
2022-10-11T14:31:15.462Z,48.44
2022-10-11T14:33:41.957Z,48.73
2022-10-11T14:36:09.398Z,48.56
2022-10-11T14:38:35.995Z,49.43
2022-10-11T14:41:02.482Z,49.56
2022-10-11T14:43:28.962Z,49.82
2022-10-11T14:45:55.425Z,50.07
2022-10-11T14:48:42.995Z,48.83
2022-10-11T14:51:13.039Z,48.50
2022-10-11T14:53:46.010Z,48.51
2022-10-11T14:56:20.403Z,48.98
2022-10-11T14:58:48.025Z,49.32
2022-10-11T15:01:16.446Z,48.57
2022-10-11T15:03:43.325Z,48.61
2022-10-11T15:06:33.873Z,49.28
2022-10-11T15:09:00.395Z,49.12
2022-10-11T15:11:26.857Z,48.86
2022-10-11T15:13:53.867Z,48.87
2022-10-11T15:16:21.315Z,48.61
2022-10-11T15:18:52.044Z,48.99
2022-10-11T15:21:20.693Z,48.53
2022-10-11T15:23:48.178Z,48.32
2022-10-11T15:26:24.400Z,48.05
2022-10-11T15:28:52.402Z,47.27
2022-10-11T15:31:19.657Z,47.64
2022-10-11T15:33:46.445Z,46.59
2022-10-11T15:36:17.543Z,46.35
2022-10-11T15:38:44.831Z,46.40
2022-10-11T15:41:13.803Z,47.50
2022-10-11T15:43:40.810Z,47.65
2022-10-11T15:46:07.817Z,48.02
2022-10-11T15:48:35.345Z,48.16
2022-10-11T15:51:01.876Z,47.69
2022-10-11T15:53:31.211Z,47.94
2022-10-11T15:56:01.344Z,48.46
2022-10-11T15:58:32.210Z,48.51
2022-10-11T16:01:05.651Z,49.29
2022-10-11T16:03:33.317Z,49.15
2022-10-11T16:06:04.856Z,49.25
2022-10-11T16:08:33.243Z,50.07
2022-10-11T16:10:59.874Z,49.97
2022-10-11T16:13:26.783Z,50.59
2022-10-11T16:15:53.385Z,51.00
2022-10-11T16:18:22.556Z,51.33
2022-10-11T16:20:51.932Z,51.48
2022-10-11T16:23:20.612Z,51.47
2022-10-11T16:25:56.506Z,52.17
2022-10-11T16:28:23.045Z,52.78
2022-10-11T16:30:49.562Z,52.82
2022-10-11T16:33:18.426Z,53.06
2022-10-11T16:35:44.926Z,53.90
2022-10-11T16:38:11.487Z,54.19
2022-10-11T16:40:40.422Z,54.63
2022-10-11T16:43:08.099Z,54.96
2022-10-11T16:45:35.365Z,54.86
2022-10-11T16:48:02.600Z,55.61
2022-10-11T16:50:29.218Z,57.16
2022-10-11T16:52:56.113Z,57.89
2022-10-11T16:55:22.988Z,59.01
2022-10-11T16:57:49.474Z,59.21
2022-10-11T17:00:16.239Z,59.74
2022-10-11T17:02:43.079Z,60.35
2022-10-11T17:05:09.606Z,60.94
2022-10-11T17:07:36.130Z,60.80
2022-10-11T17:10:03.306Z,60.87
2022-10-11T17:12:29.996Z,60.39
2022-10-11T17:14:56.645Z,60.43
2022-10-11T17:17:23.342Z,60.96
2022-10-11T17:19:50.146Z,61.55
2022-10-11T17:22:19.032Z,62.07
2022-10-11T17:24:45.806Z,62.77
2022-10-11T17:27:12.718Z,62.86
2022-10-11T17:29:39.826Z,63.26
2022-10-11T17:32:06.544Z,63.65
2022-10-11T17:34:33.692Z,63.51
2022-10-11T17:37:00.194Z,64.00
2022-10-11T17:39:26.688Z,64.06
2022-10-11T17:41:53.374Z,64.38
2022-10-11T17:44:21.766Z,64.28
2022-10-11T17:46:49.363Z,64.67
2022-10-11T17:49:16.582Z,64.56
2022-10-11T17:51:44.234Z,65.33
2022-10-11T17:54:12.928Z,65.32
2022-10-11T17:56:41.087Z,65.84
2022-10-11T17:59:09.627Z,66.08
2022-10-11T18:01:37.340Z,66.65
2022-10-11T18:04:05.277Z,66.55
2022-10-11T18:06:37.484Z,67.10
2022-10-11T18:09:04.481Z,66.92
2022-10-11T18:11:31.674Z,67.47
2022-10-11T18:13:58.372Z,67.21
2022-10-11T18:16:27.144Z,67.29
2022-10-11T18:18:54.890Z,67.84
2022-10-11T18:21:21.663Z,68.03
2022-10-11T18:23:48.176Z,68.49
2022-10-11T18:26:17.553Z,68.43
2022-10-11T18:28:45.400Z,68.63
2022-10-11T18:31:18.589Z,68.81
2022-10-11T18:33:46.186Z,68.69
2022-10-11T18:36:15.037Z,68.73
2022-10-11T18:38:47.183Z,69.00
2022-10-11T18:41:16.914Z,69.14
2022-10-11T18:43:48.657Z,69.30
2022-10-11T18:46:15.207Z,69.42
2022-10-11T18:48:43.416Z,69.83
2022-10-11T18:51:15.871Z,69.58
2022-10-11T18:53:42.517Z,70.16
2022-10-11T18:56:10.494Z,69.50
2022-10-11T18:58:39.163Z,69.65
2022-10-11T19:01:18.143Z,70.26
2022-10-11T19:03:46.285Z,70.49
2022-10-11T19:06:18.921Z,70.25
2022-10-11T19:08:47.397Z,70.74
2022-10-11T19:11:21.706Z,70.78
2022-10-11T19:14:09.896Z,70.70
2022-10-11T19:16:40.490Z,70.37
2022-10-11T19:19:08.050Z,70.45
2022-10-11T19:21:34.567Z,70.94
2022-10-11T19:24:01.356Z,71.12
2022-10-11T19:26:36.507Z,70.93
2022-10-11T19:29:11.641Z,71.05
2022-10-11T19:31:43.116Z,71.26
2022-10-11T19:34:10.346Z,70.94
2022-10-11T19:36:37.129Z,71.13
2022-10-11T19:39:05.021Z,71.42
2022-10-11T19:41:32.253Z,71.72
2022-10-11T19:44:00.040Z,71.44
2022-10-11T19:46:49.851Z,71.56
2022-10-11T19:49:17.543Z,71.59
2022-10-11T19:51:44.210Z,72.11
2022-10-11T19:54:13.626Z,72.46
2022-10-11T19:56:40.752Z,72.51
2022-10-11T19:59:07.368Z,72.31
2022-10-11T20:01:35.391Z,72.49
2022-10-11T20:04:04.240Z,72.52
2022-10-11T20:06:37.937Z,72.71
2022-10-11T20:09:27.919Z,72.66
2022-10-11T20:11:52.002Z,72.72
2022-10-11T20:14:18.753Z,72.59
2022-10-11T20:16:45.227Z,72.95
2022-10-11T20:19:11.721Z,72.65
2022-10-11T20:21:38.611Z,73.30
2022-10-11T20:24:05.401Z,72.60
2022-10-11T20:26:32.070Z,72.97
2022-10-11T20:28:58.699Z,73.12
2022-10-11T20:31:29.694Z,73.04
2022-10-11T20:33:58.578Z,73.29
2022-10-11T20:36:28.043Z,73.03
2022-10-11T20:38:54.584Z,72.60
2022-10-11T20:41:24.260Z,72.83
2022-10-11T20:43:54.155Z,73.22
2022-10-11T20:46:26.911Z,73.60
2022-10-11T20:49:01.880Z,73.75
2022-10-11T20:51:30.305Z,73.76
2022-10-11T20:53:56.933Z,73.83
2022-10-11T20:56:24.051Z,73.25
2022-10-11T20:58:52.706Z,73.81
2022-10-11T21:01:21.938Z,73.77
2022-10-11T21:03:48.508Z,73.54
2022-10-11T21:06:14.978Z,73.33
2022-10-11T21:08:41.744Z,73.26
2022-10-11T21:11:09.421Z,73.12
2022-10-11T21:13:36.779Z,72.79
2022-10-11T21:16:10.826Z,72.42
2022-10-11T21:18:37.603Z,72.07
2022-10-11T21:21:14.513Z,72.10
2022-10-11T21:23:41.718Z,72.20
2022-10-11T21:26:11.356Z,72.09
2022-10-11T21:28:38.916Z,72.31
2022-10-11T21:31:10.701Z,72.58
2022-10-11T21:33:37.903Z,72.70
2022-10-11T21:36:05.956Z,72.44
2022-10-11T21:38:33.312Z,72.66
2022-10-11T21:41:03.314Z,72.96
2022-10-11T21:43:29.936Z,73.62
2022-10-11T21:45:56.459Z,73.58
2022-10-11T21:48:22.976Z,73.63
2022-10-11T21:50:53.857Z,73.79
2022-10-11T21:53:20.698Z,74.06
2022-10-11T21:55:47.511Z,74.55
2022-10-11T21:58:14.159Z,74.45
2022-10-11T22:00:40.661Z,74.85
2022-10-11T22:03:07.682Z,74.68
2022-10-11T22:05:34.202Z,75.06
2022-10-11T22:08:00.681Z,74.74
2022-10-11T22:10:27.168Z,74.87
2022-10-11T22:12:53.644Z,74.82
2022-10-11T22:15:20.177Z,74.70
2022-10-11T22:17:47.100Z,74.75
2022-10-11T22:20:13.646Z,74.90
2022-10-11T22:22:40.151Z,74.51
2022-10-11T22:25:07.077Z,75.04
2022-10-11T22:27:33.551Z,75.33
2022-10-11T22:30:00.414Z,75.41
2022-10-11T22:32:27.244Z,75.26
2022-10-11T22:34:53.881Z,75.01
2022-10-11T22:37:20.354Z,74.41
2022-10-11T22:39:46.794Z,74.62
2022-10-11T22:42:13.478Z,75.05
2022-10-11T22:44:39.985Z,75.14
2022-10-11T22:47:06.474Z,75.40
2022-10-11T22:49:32.941Z,75.49
2022-10-11T22:51:59.479Z,75.38
2022-10-11T22:54:26.012Z,75.95
2022-10-11T22:56:52.550Z,76.15
2022-10-11T22:59:19.033Z,76.20
2022-10-11T23:01:45.563Z,76.07
2022-10-11T23:04:12.355Z,75.86
2022-10-11T23:06:38.828Z,75.97
2022-10-11T23:09:05.396Z,75.93
2022-10-11T23:11:31.915Z,75.58
2022-10-11T23:13:58.389Z,75.94
2022-10-11T23:16:24.980Z,75.46
2022-10-11T23:18:53.313Z,75.87
2022-10-11T23:21:20.150Z,76.17
2022-10-11T23:23:46.692Z,75.88
2022-10-11T23:26:16.134Z,75.67
2022-10-11T23:28:43.821Z,76.05
2022-10-11T23:31:13.115Z,76.71
2022-10-11T23:33:39.980Z,76.62
2022-10-11T23:36:13.237Z,76.43
2022-10-11T23:38:39.708Z,77.11
2022-10-11T23:41:06.206Z,77.23
2022-10-11T23:43:32.950Z,77.49
2022-10-11T23:45:59.569Z,77.67
2022-10-11T23:48:26.107Z,77.48
2022-10-11T23:50:52.601Z,77.44
2022-10-11T23:53:19.163Z,77.52
2022-10-11T23:55:45.760Z,77.41
2022-10-11T23:58:12.258Z,77.10
